AirNav  
 
 441 users online  

52K Charles E Grutzmacher Municipal Airport
Onaga, Kansas, USA


FAA INFORMATION EFFECTIVE 09 NOVEMBER 2017

Location

FAA Identifier: 52K
Lat/Long: 39-29-52.6200N / 096-10-30.3000W
39-29.877000N / 096-10.505000W
39.4979500 / -96.1750833
(estimated)
Elevation: 1183 ft. / 361 m (estimated)
Variation: 06E (1985)
Time zone: UTC -6 (UTC -5 during Daylight Saving Time)
Zip code: 66521

Airport Operations

Airport use: Open to the public
Activation date: 01/1965
Control tower: no
ARTCC: KANSAS CITY CENTER
FSS: WICHITA FLIGHT SERVICE STATION
NOTAMs facility: ICT (NOTAM-D service available)
Attendance: UNATNDD
Wind indicator: yes
Segmented circle: no

Airport Communications

CTAF: 122.9

Nearby radio navigation aids

VOR radial/distance  VOR name  Freq  Var
MHKr043/31.2MANHATTAN VOR/DME110.2004E
TOPr302/36.2TOPEKA VORTAC117.8005E

Airport Services

Parking: tiedowns
Airframe service: NONE
Powerplant service: NONE
Bottled oxygen: NONE
Bulk oxygen: NONE

Runway Information

Runway 18/36

Dimensions: 2200 x 61 ft. / 671 x 19 m
WIDTH VARIES FM MIN 61 FT AT AER 36 TO MAX 136 FT AT MIDFLD.
Surface: turf, in good condition
RWY NR MIDFIELD HAS OCNL MINOR DEPRESSIONS.
Runway edge lights: AER 36 MKD WITH 4 WHITE LGTS ON 36 IN. PEDESTALS. FIRST 600 FT RY 36 LGTD. W SIDE ONLY.
Gradient: N
RUNWAY 18  RUNWAY 36
Latitude: 39-30.057500N39-29.696500N
Longitude: 096-10.483833W096-10.526167W
Elevation: 1177.0 ft.1166.0 ft.
Gradient: 0.5% UP
Traffic pattern: leftleft
Obstructions: 44 ft. tree, 645 ft. from runway, 162 ft. left of centerline, 14:1 slope to clear8 ft. road, 30 ft. from runway, 3:1 slope to clear

Airport Ownership and Management from official FAA records

Ownership: Publicly-owned
Owner: CITY OF ONAGA
PO BOX 298 - 319 PROSPECT ST.
ONAGA, KS 66521
Phone 785-889-4456
Manager: AUGUST HARTWICH, MAYOR
PO BOX 298
ONAGA, KS 66521
Phone (785) 889-4456

Airport Operational Statistics

Aircraft based on the field: 1
Single engine airplanes: 1
    
Aircraft operations: avg 25/month *
33% transient general aviation
33% local general aviation
33% military
* for 12-month period ending 31 July 2017

Instrument Procedures

There are no published instrument procedures at 52K.

Some nearby airports with instrument procedures:

KMYZ - Marysville Municipal Airport (30 nm NW)
KMHK - Manhattan Regional Airport (31 nm SW)
KTOP - Philip Billard Municipal Airport (36 nm SE)
KFRI - Marshall Army Airfield (38 nm SW)
KFOE - Topeka Regional Airport (41 nm SE)
 
Loc | Ops | Rwys | IFR | FBO | Links
Com | Nav | Svcs | Stats | Notes

Kansas City Aviation Department
 
Area around 52K (Charles E Grutzmacher Municipal Airport)
 
Road maps at: MapQuest Bing Google
 
Aerial photo
WARNING: Photo may not be current or correct
Aerial photo of 52K (Charles E Grutzmacher Municipal Airport)
Taken in the Fall of 2003

Do you have a better or more recent aerial photo of Charles E Grutzmacher Municipal Airport that you would like to share? If so, please send us your photo.

 
Sectional chart

 
Airport distance calculator
Flying to Charles E Grutzmacher Municipal Airport? Find the distance to fly.

From to 52K

Sunrise and sunset
Times for 19-Nov-2017
 Local
(UTC-6)
 Zulu
(UTC)
Morning civil twilight06:4512:45
Sunrise07:1413:14
Sunset17:0623:06
Evening civil twilight17:3523:35

Current date and time
Zulu (UTC)  19-Nov-2017 06:31:43
Local (UTC-6)  19-Nov-2017 00:31:43
 
METAR
KMYZ 
30nm NW 
190615Z AUTO 32004KT 10SM CLR 00/M03 A3024 RMK AO2
KMHK 
32nm SW 
190552Z AUTO 00000KT 10SM CLR 01/M04 A3025 RMK AO2 SLP249 T00061039 10089 21006 401441006 50006
KTOP 
36nm SE 
190553Z AUTO 26004KT 10SM CLR 02/M02 A3023 RMK AO2 SLP242 T00171022 10089 20017 401390017 51013
KFRI 
39nm SW 
190558Z AUTO 22003KT 10SM CLR 01/M04 A3024 RMK AO2 SLP245 T00071037 10091 20006 401390006 50005
KFOE 
42nm SE 
190553Z AUTO 29005KT 10SM CLR 01/M03 A3023 RMK AO2 SLP241 T00111028 10089 20006 401500006 51012
KFNB 
44nm NE 
190553Z AUTO 29006KT 10SM CLR M01/M04 A3022 RMK AO2 SLP239 T10111039 10056 21011 401331011 51010
TAF
KMHK 
32nm SW 
190533Z 1906/2006 27003KT P6SM SKC FM191400 21009KT P6SM SKC
KTOP 
36nm SE 
190533Z 1906/2006 29005KT P6SM SKC FM191500 22008KT P6SM SKC
NOTAMs
Click for the latest NOTAMs
NOTAMs are issued by the DoD/FAA and will open in a separate window not controlled by AirNav.

 

 
 

Would you like to see your business listed on this page?

 If your business provides an interesting product or service to pilots, flight crews, aircraft, or users of the Charles E Grutzmacher Municipal Airport, you should consider listing it here.  To start the listing process, click on the button below
 
Add a business
 

Other Pages about Charles E Grutzmacher Municipal Airport

Update a link
 
Copyright © AirNav, LLC. All rights reserved. Privacy Policy  Contact